createdAt,value
2017-09-10T00:01:35.421Z,3.80
2017-09-10T00:04:03.969Z,3.27
2017-09-10T00:06:31.729Z,4.30
2017-09-10T00:08:59.366Z,5.70
2017-09-10T00:11:28.105Z,2.83
2017-09-10T00:13:56.493Z,3.60
2017-09-10T00:16:24.891Z,2.73
2017-09-10T00:18:53.720Z,3.00
2017-09-10T00:21:23.406Z,3.30
2017-09-10T00:23:51.400Z,3.27
2017-09-10T00:26:19.068Z,2.93
2017-09-10T00:28:46.831Z,6.30
2017-09-10T00:31:14.596Z,3.20
2017-09-10T00:33:42.208Z,2.10
2017-09-10T00:36:10.739Z,6.30
2017-09-10T00:38:38.355Z,3.00
2017-09-10T00:41:06.781Z,3.70
2017-09-10T00:43:34.461Z,4.53
2017-09-10T00:46:02.323Z,3.30
2017-09-10T00:48:29.966Z,4.53
2017-09-10T00:50:57.586Z,3.40
2017-09-10T00:53:26.005Z,5.20
2017-09-10T00:55:53.629Z,3.00
2017-09-10T00:58:21.240Z,3.63
2017-09-10T01:00:48.897Z,3.80
2017-09-10T01:03:16.657Z,4.33
2017-09-10T01:05:44.286Z,2.73
2017-09-10T01:08:12.702Z,5.53
2017-09-10T01:10:40.323Z,2.33
2017-09-10T01:13:07.963Z,8.60
2017-09-10T01:15:36.397Z,7.63
2017-09-10T01:18:04.061Z,3.43
2017-09-10T01:20:31.741Z,3.40
2017-09-10T01:22:59.487Z,4.97
2017-09-10T01:25:27.115Z,6.83
2017-09-10T01:27:54.726Z,3.80
2017-09-10T01:30:22.377Z,3.30
2017-09-10T01:32:50.016Z,3.97
2017-09-10T01:35:17.801Z,3.20
2017-09-10T01:37:45.561Z,3.57
2017-09-10T01:40:13.182Z,3.70
2017-09-10T01:42:40.899Z,3.80
2017-09-10T01:45:08.566Z,8.53
2017-09-10T01:47:36.311Z,4.03
2017-09-10T01:50:03.944Z,5.50
2017-09-10T01:52:31.632Z,8.97
2017-09-10T01:54:59.261Z,6.17
2017-09-10T01:57:26.926Z,3.83
2017-09-10T01:59:54.549Z,3.70
2017-09-10T02:02:22.281Z,4.67
2017-09-10T02:04:49.945Z,3.10
2017-09-10T02:07:17.568Z,2.70
2017-09-10T02:09:45.195Z,3.20
2017-09-10T02:12:12.853Z,6.33
2017-09-10T02:14:40.472Z,3.43
2017-09-10T02:17:08.083Z,9.13
2017-09-10T02:19:36.520Z,7.10
2017-09-10T02:22:04.213Z,3.40
2017-09-10T02:24:31.839Z,4.83
2017-09-10T02:26:59.500Z,3.37
2017-09-10T02:29:27.114Z,5.20
2017-09-10T02:31:55.510Z,3.97
2017-09-10T02:34:23.168Z,4.73
2017-09-10T02:36:51.613Z,4.10
2017-09-10T02:39:19.271Z,3.40
2017-09-10T02:41:47.036Z,7.77
2017-09-10T02:44:14.679Z,2.90
2017-09-10T02:46:42.301Z,2.87
2017-09-10T02:49:10.733Z,3.50
2017-09-10T02:51:38.380Z,2.63
2017-09-10T02:54:06.011Z,3.10
2017-09-10T02:56:33.678Z,3.77
2017-09-10T02:59:01.310Z,3.33
2017-09-10T03:01:29.695Z,3.83
2017-09-10T03:03:58.104Z,5.63
2017-09-10T03:06:25.724Z,4.33
2017-09-10T03:08:53.384Z,5.40
2017-09-10T03:11:21.056Z,4.37
2017-09-10T03:13:49.446Z,8.03
2017-09-10T03:16:17.853Z,8.40
2017-09-10T03:18:45.531Z,4.40
2017-09-10T03:21:13.166Z,4.23
2017-09-10T03:23:40.813Z,2.90
2017-09-10T03:26:08.440Z,5.83
2017-09-10T03:28:36.068Z,3.30
2017-09-10T03:31:03.730Z,3.50
2017-09-10T03:33:31.420Z,4.23
2017-09-10T03:35:59.052Z,5.83
2017-09-10T03:38:26.728Z,11.73
2017-09-10T03:40:54.360Z,5.73
2017-09-10T03:43:22.004Z,5.80
2017-09-10T03:45:49.659Z,9.10
2017-09-10T03:48:18.045Z,6.87
2017-09-10T03:50:45.752Z,8.47
2017-09-10T03:53:13.410Z,4.70
2017-09-10T03:55:41.039Z,4.70
2017-09-10T03:58:08.669Z,6.27
2017-09-10T04:00:36.399Z,6.33
2017-09-10T04:03:04.060Z,5.00
2017-09-10T04:05:31.744Z,6.50
2017-09-10T04:07:59.407Z,6.77
2017-09-10T04:10:27.033Z,6.70
2017-09-10T04:12:54.681Z,5.37
2017-09-10T04:15:22.473Z,9.53
2017-09-10T04:17:50.087Z,4.40
2017-09-10T04:20:18.530Z,4.43
2017-09-10T04:22:46.194Z,6.43
2017-09-10T04:25:13.812Z,12.30
2017-09-10T04:27:41.499Z,8.17
2017-09-10T04:30:09.154Z,7.50
2017-09-10T04:32:36.844Z,5.30
2017-09-10T04:35:04.503Z,9.37
2017-09-10T04:37:32.187Z,6.67
2017-09-10T04:40:00.608Z,5.40
2017-09-10T04:42:28.233Z,4.40
2017-09-10T04:44:56.668Z,6.20
2017-09-10T04:47:24.295Z,7.30
2017-09-10T04:49:52.094Z,5.40
2017-09-10T04:52:22.209Z,7.20
2017-09-10T04:54:49.874Z,9.20
2017-09-10T04:57:17.500Z,5.60
2017-09-10T04:59:45.610Z,6.90
2017-09-10T05:02:13.236Z,7.60
2017-09-10T05:04:40.889Z,6.20
2017-09-10T05:07:08.500Z,6.27
2017-09-10T05:09:36.152Z,7.67
2017-09-10T05:12:04.029Z,9.70
2017-09-10T05:14:31.646Z,4.07
2017-09-10T05:16:59.496Z,4.40
2017-09-10T05:19:28.032Z,5.47
2017-09-10T05:21:55.645Z,4.03
2017-09-10T05:24:24.058Z,3.50
2017-09-10T05:26:51.723Z,6.57
2017-09-10T05:29:19.343Z,6.47
2017-09-10T05:31:47.063Z,9.70
2017-09-10T05:34:14.839Z,7.77
2017-09-10T05:36:42.703Z,4.73
2017-09-10T05:39:11.184Z,6.60
2017-09-10T05:41:38.933Z,4.10
2017-09-10T05:44:06.567Z,4.90
2017-09-10T05:46:34.226Z,4.43
2017-09-10T05:49:01.835Z,4.97
2017-09-10T05:51:29.600Z,7.67
2017-09-10T05:53:58.166Z,5.70
2017-09-10T05:56:25.928Z,5.30
2017-09-10T05:58:53.548Z,6.47
2017-09-10T06:01:21.220Z,6.50
2017-09-10T06:03:48.942Z,7.20
2017-09-10T06:06:16.590Z,6.90
2017-09-10T06:08:44.244Z,8.70
2017-09-10T06:11:11.882Z,4.63
2017-09-10T06:13:39.523Z,5.57
2017-09-10T06:16:07.165Z,8.70
2017-09-10T06:18:35.554Z,9.90
2017-09-10T06:21:04.186Z,9.00
2017-09-10T06:23:31.871Z,11.57
2017-09-10T06:26:00.434Z,16.50
2017-09-10T06:28:28.092Z,13.50
2017-09-10T06:30:55.734Z,13.27
2017-09-10T06:33:23.392Z,15.30
2017-09-10T06:35:51.019Z,17.70
2017-09-10T06:38:19.480Z,12.60
2017-09-10T06:40:47.118Z,20.80
2017-09-10T06:43:14.799Z,13.53
2017-09-10T06:45:42.468Z,15.67
2017-09-10T06:48:10.109Z,15.33
2017-09-10T06:50:37.784Z,16.10
2017-09-10T06:53:06.348Z,16.70
2017-09-10T06:55:34.004Z,15.87
2017-09-10T06:58:01.628Z,15.50
2017-09-10T07:00:30.041Z,17.10
2017-09-10T07:02:57.672Z,16.90
2017-09-10T07:05:25.337Z,12.80
2017-09-10T07:07:53.084Z,19.27
2017-09-10T07:10:21.511Z,12.73
2017-09-10T07:12:49.133Z,18.40
2017-09-10T07:15:16.810Z,15.47
2017-09-10T07:17:44.441Z,20.20
2017-09-10T07:20:12.186Z,14.50
2017-09-10T07:22:39.885Z,17.27
2017-09-10T07:25:07.522Z,16.20
2017-09-10T07:27:35.278Z,20.13
2017-09-10T07:30:02.932Z,19.00
2017-09-10T07:32:30.717Z,20.23
2017-09-10T07:34:58.358Z,24.00
2017-09-10T07:37:26.125Z,12.80
2017-09-10T07:39:53.825Z,19.60
2017-09-10T07:42:21.460Z,18.63
2017-09-10T07:44:49.896Z,19.33
2017-09-10T07:47:17.516Z,25.13
2017-09-10T07:49:45.924Z,17.57
2017-09-10T07:52:13.613Z,23.37
2017-09-10T07:54:41.248Z,26.77
2017-09-10T07:57:08.886Z,18.37
2017-09-10T07:59:36.549Z,24.13
2017-09-10T08:02:04.203Z,25.57
2017-09-10T08:04:32.033Z,25.03
2017-09-10T08:06:59.701Z,23.83
2017-09-10T08:09:27.329Z,25.20
2017-09-10T08:11:54.998Z,25.07
2017-09-10T08:14:22.613Z,22.10
2017-09-10T08:16:50.996Z,21.10
2017-09-10T08:19:19.439Z,22.00
2017-09-10T08:21:47.089Z,22.63
2017-09-10T08:24:14.712Z,28.60
2017-09-10T08:26:42.381Z,20.60
2017-09-10T08:29:10.006Z,22.17
2017-09-10T08:31:37.636Z,27.20
2017-09-10T08:34:05.296Z,28.90
2017-09-10T08:36:32.943Z,23.97
2017-09-10T08:39:00.571Z,18.33
2017-09-10T08:41:29.154Z,32.77
2017-09-10T08:43:56.784Z,27.13
2017-09-10T08:46:24.447Z,30.63
2017-09-10T08:48:52.113Z,28.90
2017-09-10T08:51:19.748Z,29.90
2017-09-10T08:53:47.379Z,21.77
2017-09-10T08:56:15.054Z,24.50
2017-09-10T08:58:42.692Z,27.40
2017-09-10T09:01:11.121Z,25.80
2017-09-10T09:03:38.748Z,18.77
2017-09-10T09:06:06.388Z,23.00
2017-09-10T09:08:34.050Z,28.37
2017-09-10T09:11:02.440Z,23.27
2017-09-10T09:13:30.084Z,26.07
2017-09-10T09:15:58.500Z,24.17
2017-09-10T09:18:26.175Z,30.00
2017-09-10T09:20:53.815Z,30.40
2017-09-10T09:23:21.450Z,20.13
2017-09-10T09:25:49.905Z,24.80
2017-09-10T09:28:17.547Z,23.53
2017-09-10T09:30:45.227Z,22.90
2017-09-10T09:33:12.862Z,26.60
2017-09-10T09:35:40.513Z,22.70
2017-09-10T09:38:08.178Z,21.77
2017-09-10T09:40:35.835Z,22.60
2017-09-10T09:43:03.494Z,23.13
2017-09-10T09:45:31.121Z,21.93
2017-09-10T09:47:59.612Z,19.17
2017-09-10T09:50:27.284Z,26.23
2017-09-10T09:52:54.905Z,20.80
2017-09-10T09:55:22.546Z,19.13
2017-09-10T09:57:50.968Z,14.93
2017-09-10T10:00:19.364Z,16.80
2017-09-10T10:02:46.988Z,15.23
2017-09-10T10:05:14.659Z,17.97
2017-09-10T10:07:43.064Z,15.97
2017-09-10T10:10:10.677Z,14.30
2017-09-10T10:12:38.343Z,12.57
2017-09-10T10:15:05.965Z,12.83
2017-09-10T10:17:33.658Z,12.10
2017-09-10T10:20:01.347Z,9.40
2017-09-10T10:22:29.875Z,11.23
2017-09-10T10:24:57.492Z,9.23
2017-09-10T10:27:25.887Z,9.23
2017-09-10T10:29:54.345Z,9.10
2017-09-10T10:32:22.752Z,12.80
2017-09-10T10:34:51.217Z,12.50
2017-09-10T10:37:18.961Z,8.20
2017-09-10T10:39:46.726Z,11.50
2017-09-10T10:42:14.619Z,6.97
2017-09-10T10:44:42.315Z,6.97
2017-09-10T10:47:09.930Z,6.23
2017-09-10T10:49:38.963Z,11.13
2017-09-10T10:52:07.151Z,5.23
2017-09-10T10:54:34.900Z,7.20
2017-09-10T10:57:03.509Z,4.60
2017-09-10T10:59:31.140Z,4.30
2017-09-10T11:01:58.795Z,4.70
2017-09-10T11:04:26.510Z,5.70
2017-09-10T11:06:54.275Z,3.60
2017-09-10T11:09:21.904Z,3.10
2017-09-10T11:11:49.599Z,5.63
2017-09-10T11:14:17.243Z,3.07
2017-09-10T11:16:44.981Z,2.40
2017-09-10T11:19:12.632Z,3.10
2017-09-10T11:21:40.286Z,3.47
2017-09-10T11:24:09.217Z,4.30
2017-09-10T11:26:37.318Z,3.97
2017-09-10T11:29:05.892Z,2.70
2017-09-10T11:31:34.474Z,2.70
2017-09-10T11:34:03.345Z,5.73
2017-09-10T11:36:31.080Z,3.60
2017-09-10T11:38:58.748Z,2.47
2017-09-10T11:41:26.383Z,4.70
2017-09-10T11:43:54.806Z,2.37
2017-09-10T11:46:22.449Z,2.30
2017-09-10T11:48:50.097Z,4.90
2017-09-10T11:51:17.725Z,5.13
2017-09-10T11:53:45.365Z,2.53
2017-09-10T11:56:13.004Z,4.07
2017-09-10T11:58:40.747Z,2.43
2017-09-10T12:01:08.391Z,3.90
2017-09-10T12:03:36.036Z,2.20
2017-09-10T12:06:03.664Z,2.80
2017-09-10T12:08:31.328Z,3.40
2017-09-10T12:10:58.959Z,5.00
2017-09-10T12:13:26.628Z,2.83
2017-09-10T12:15:54.267Z,8.63
2017-09-10T12:18:22.694Z,1.90
2017-09-10T12:20:50.324Z,2.30
2017-09-10T12:23:17.960Z,2.20
2017-09-10T12:25:46.383Z,2.23
2017-09-10T12:28:14.036Z,2.97
2017-09-10T12:30:41.665Z,2.10
2017-09-10T12:33:10.069Z,1.90
2017-09-10T12:35:37.697Z,1.67
2017-09-10T12:38:05.376Z,2.67
2017-09-10T12:40:33.760Z,2.80
2017-09-10T12:43:02.183Z,2.40
2017-09-10T12:45:30.571Z,2.93
2017-09-10T12:47:58.245Z,3.80
2017-09-10T12:50:25.877Z,2.03
2017-09-10T12:52:53.534Z,2.47
2017-09-10T12:55:21.161Z,3.03
2017-09-10T12:57:49.568Z,1.87
2017-09-10T13:00:17.217Z,1.77
2017-09-10T13:02:44.880Z,2.87
2017-09-10T13:05:12.539Z,2.00
2017-09-10T13:07:40.203Z,1.70
2017-09-10T13:10:08.529Z,2.70
2017-09-10T13:12:36.184Z,3.17
2017-09-10T13:15:03.833Z,2.47
2017-09-10T13:17:31.515Z,1.73
2017-09-10T13:19:59.162Z,2.97
2017-09-10T13:22:26.826Z,2.10
2017-09-10T13:24:54.487Z,2.40
2017-09-10T13:27:22.186Z,3.13
2017-09-10T13:29:50.567Z,3.73
2017-09-10T13:32:18.974Z,2.90
2017-09-10T13:34:46.633Z,2.97
2017-09-10T13:37:14.280Z,2.00
2017-09-10T13:39:41.944Z,1.70
2017-09-10T13:42:09.620Z,1.73
2017-09-10T13:44:37.302Z,1.70
2017-09-10T13:47:04.939Z,3.63
2017-09-10T13:49:32.596Z,1.90
2017-09-10T13:52:00.226Z,1.80
2017-09-10T13:54:27.877Z,1.73
2017-09-10T13:56:55.511Z,3.57
2017-09-10T13:59:23.162Z,1.73
2017-09-10T14:01:50.832Z,1.80
2017-09-10T14:04:18.484Z,1.80
2017-09-10T14:06:46.268Z,1.77
2017-09-10T14:09:13.949Z,1.87
2017-09-10T14:11:41.564Z,1.57
2017-09-10T14:14:09.194Z,1.90
2017-09-10T14:16:37.612Z,3.10
2017-09-10T14:19:05.242Z,1.40
2017-09-10T14:21:33.667Z,1.80
2017-09-10T14:24:01.280Z,2.00
2017-09-10T14:26:29.730Z,1.57
2017-09-10T14:28:58.878Z,1.67
2017-09-10T14:31:26.497Z,2.03
2017-09-10T14:33:54.156Z,1.80
2017-09-10T14:36:21.794Z,1.70
2017-09-10T14:38:50.222Z,2.13
2017-09-10T14:41:18.605Z,3.10
2017-09-10T14:43:47.006Z,1.50
2017-09-10T14:46:14.650Z,2.00
2017-09-10T14:48:43.179Z,1.53
2017-09-10T14:51:10.855Z,1.87
2017-09-10T14:53:38.495Z,1.80
2017-09-10T14:56:06.143Z,2.40
2017-09-10T14:58:33.780Z,7.20
2017-09-10T15:01:01.420Z,2.47
2017-09-10T15:03:29.031Z,1.90
2017-09-10T15:05:56.703Z,2.30
2017-09-10T15:08:24.359Z,2.27
2017-09-10T15:10:53.052Z,2.23
2017-09-10T15:13:20.703Z,2.20
2017-09-10T15:15:48.360Z,1.90
2017-09-10T15:18:15.994Z,3.00
2017-09-10T15:20:43.650Z,2.23
2017-09-10T15:23:12.060Z,1.57
2017-09-10T15:25:39.723Z,1.87
2017-09-10T15:28:07.361Z,1.70
2017-09-10T15:30:35.022Z,2.00
2017-09-10T15:33:02.660Z,2.53
2017-09-10T15:35:30.285Z,2.43
2017-09-10T15:37:58.700Z,1.80
2017-09-10T15:40:26.330Z,1.70
2017-09-10T15:42:53.999Z,1.97
2017-09-10T15:45:21.620Z,1.90
2017-09-10T15:47:49.279Z,2.40
2017-09-10T15:50:16.911Z,2.10
2017-09-10T15:52:45.328Z,1.80
2017-09-10T15:55:12.944Z,3.27
2017-09-10T15:57:40.629Z,1.87
2017-09-10T16:00:08.300Z,1.87
2017-09-10T16:02:35.949Z,2.17
2017-09-10T16:05:04.372Z,1.93
2017-09-10T16:07:32.772Z,2.10
2017-09-10T16:10:00.425Z,1.90
2017-09-10T16:12:28.058Z,2.00
2017-09-10T16:14:55.689Z,2.00
2017-09-10T16:17:24.123Z,2.13
2017-09-10T16:19:51.761Z,2.57
2017-09-10T16:22:19.409Z,2.23
2017-09-10T16:24:47.022Z,2.90
2017-09-10T16:27:14.681Z,2.13
2017-09-10T16:29:42.374Z,1.90
2017-09-10T16:32:10.046Z,2.03
2017-09-10T16:34:38.484Z,1.90
2017-09-10T16:37:06.118Z,2.20
2017-09-10T16:39:33.775Z,2.20
2017-09-10T16:42:01.397Z,2.13
2017-09-10T16:44:29.799Z,1.90
2017-09-10T16:46:57.438Z,1.93
2017-09-10T16:49:25.191Z,2.10
2017-09-10T16:51:52.841Z,2.53
2017-09-10T16:54:20.599Z,1.70
2017-09-10T16:56:48.337Z,2.07
2017-09-10T16:59:16.167Z,2.70
2017-09-10T17:01:43.986Z,2.50
2017-09-10T17:04:11.747Z,2.80
2017-09-10T17:06:39.518Z,2.33
2017-09-10T17:09:07.282Z,2.10
2017-09-10T17:11:34.974Z,2.00
2017-09-10T17:14:02.644Z,1.87
2017-09-10T17:16:31.116Z,2.50
2017-09-10T17:18:58.844Z,1.80
2017-09-10T17:21:26.723Z,2.30
2017-09-10T17:23:54.541Z,3.33
2017-09-10T17:26:22.240Z,2.50
2017-09-10T17:28:50.006Z,2.07
2017-09-10T17:31:17.890Z,1.93
2017-09-10T17:33:45.653Z,2.70
2017-09-10T17:36:13.500Z,2.00
2017-09-10T17:38:41.587Z,2.73
2017-09-10T17:41:09.459Z,2.10
2017-09-10T17:43:37.151Z,3.07
2017-09-10T17:46:04.882Z,2.10
2017-09-10T17:48:32.747Z,2.70
2017-09-10T17:51:00.595Z,1.63
2017-09-10T17:53:28.364Z,2.53
2017-09-10T17:55:57.777Z,2.80
2017-09-10T17:58:25.464Z,2.27
2017-09-10T18:00:54.120Z,3.37
2017-09-10T18:03:21.824Z,2.90
2017-09-10T18:05:50.275Z,2.70
2017-09-10T18:08:17.951Z,2.80
2017-09-10T18:10:45.730Z,3.57
2017-09-10T18:13:14.367Z,3.37
2017-09-10T18:15:42.132Z,3.20
2017-09-10T18:18:09.793Z,2.73
2017-09-10T18:20:37.778Z,3.20
2017-09-10T18:23:05.536Z,2.30
2017-09-10T18:25:33.312Z,3.13
2017-09-10T18:28:01.174Z,2.57
2017-09-10T18:30:28.860Z,2.97
2017-09-10T18:32:57.428Z,2.90
2017-09-10T18:35:25.173Z,2.87
2017-09-10T18:37:53.040Z,3.20
2017-09-10T18:40:21.211Z,2.37
2017-09-10T18:42:48.970Z,3.17
2017-09-10T18:45:16.748Z,3.03
2017-09-10T18:47:44.526Z,2.30
2017-09-10T18:50:12.392Z,3.10
2017-09-10T18:52:40.035Z,5.73
2017-09-10T18:55:07.899Z,6.50
2017-09-10T18:57:35.566Z,1.70
2017-09-10T19:00:03.238Z,2.30
2017-09-10T19:02:30.883Z,2.97
2017-09-10T19:04:58.747Z,2.57
2017-09-10T19:07:26.638Z,2.10
2017-09-10T19:09:55.197Z,2.07
2017-09-10T19:12:23.064Z,3.80
2017-09-10T19:14:50.870Z,3.63
2017-09-10T19:17:18.800Z,4.90
2017-09-10T19:19:46.560Z,4.73
2017-09-10T19:22:14.429Z,5.47
2017-09-10T19:24:42.070Z,5.13
2017-09-10T19:27:09.698Z,2.83
2017-09-10T19:29:38.646Z,2.80
2017-09-10T19:32:06.312Z,2.33
2017-09-10T19:34:33.944Z,2.37
2017-09-10T19:37:01.835Z,2.47
2017-09-10T19:39:29.696Z,1.90
2017-09-10T19:41:57.464Z,3.13
2017-09-10T19:44:25.356Z,1.70
2017-09-10T19:46:53.765Z,1.90
2017-09-10T19:49:22.299Z,2.03
2017-09-10T19:51:49.946Z,1.97
2017-09-10T19:54:17.592Z,2.70
2017-09-10T19:56:45.217Z,2.30
2017-09-10T19:59:12.884Z,1.80
2017-09-10T20:01:41.284Z,2.03
2017-09-10T20:04:08.932Z,3.23
2017-09-10T20:06:37.323Z,2.00
2017-09-10T20:09:04.981Z,1.90
2017-09-10T20:11:32.704Z,2.20
2017-09-10T20:14:00.348Z,5.13
2017-09-10T20:16:27.994Z,2.57
2017-09-10T20:18:55.624Z,2.03
2017-09-10T20:21:24.038Z,2.10
2017-09-10T20:23:52.431Z,1.90
2017-09-10T20:26:20.198Z,5.10
2017-09-10T20:28:47.816Z,1.80
2017-09-10T20:31:15.450Z,2.10
2017-09-10T20:33:43.878Z,5.67
2017-09-10T20:36:11.577Z,1.77
2017-09-10T20:38:39.319Z,2.70
2017-09-10T20:41:07.912Z,1.80
2017-09-10T20:43:35.548Z,2.00
2017-09-10T20:46:03.310Z,2.30
2017-09-10T20:48:30.991Z,1.70
2017-09-10T20:50:58.757Z,1.80
2017-09-10T20:53:26.429Z,1.80
2017-09-10T20:55:54.181Z,2.30
2017-09-10T20:58:22.148Z,7.23
2017-09-10T21:00:49.915Z,1.70
2017-09-10T21:03:17.594Z,2.07
2017-09-10T21:05:45.338Z,2.20
2017-09-10T21:08:13.531Z,3.13
2017-09-10T21:10:41.282Z,1.90
2017-09-10T21:13:08.957Z,1.63
2017-09-10T21:15:36.949Z,1.83
2017-09-10T21:18:04.647Z,3.33
2017-09-10T21:20:32.470Z,4.60
2017-09-10T21:23:00.902Z,2.10
2017-09-10T21:25:28.787Z,1.60
2017-09-10T21:27:56.414Z,1.80
2017-09-10T21:30:24.070Z,2.17
2017-09-10T21:32:51.874Z,1.93
2017-09-10T21:35:20.478Z,2.03
2017-09-10T21:37:48.346Z,1.83
2017-09-10T21:40:15.986Z,2.30
2017-09-10T21:42:43.783Z,2.70
2017-09-10T21:45:12.332Z,1.80
2017-09-10T21:47:40.018Z,2.20
2017-09-10T21:50:07.792Z,1.83
2017-09-10T21:52:35.414Z,1.90
2017-09-10T21:55:03.210Z,2.10
2017-09-10T21:57:31.062Z,2.13
2017-09-10T21:59:58.717Z,1.83
2017-09-10T22:02:26.360Z,2.20
2017-09-10T22:04:54.033Z,1.60
2017-09-10T22:07:21.686Z,1.70
2017-09-10T22:09:49.301Z,1.90
2017-09-10T22:12:17.740Z,3.93
2017-09-10T22:14:45.505Z,1.97
2017-09-10T22:17:13.218Z,2.73
2017-09-10T22:19:40.864Z,2.33
2017-09-10T22:22:08.546Z,1.70
2017-09-10T22:24:36.356Z,5.33
2017-09-10T22:27:03.997Z,4.90
2017-09-10T22:29:31.786Z,2.50
2017-09-10T22:31:59.411Z,1.93
2017-09-10T22:34:27.040Z,2.50
2017-09-10T22:36:54.706Z,3.33
2017-09-10T22:39:23.142Z,1.63
2017-09-10T22:41:51.585Z,2.10
2017-09-10T22:44:20.022Z,2.50
2017-09-10T22:46:47.653Z,4.53
2017-09-10T22:49:15.292Z,1.87
2017-09-10T22:51:42.947Z,2.47
2017-09-10T22:54:10.605Z,2.67
2017-09-10T22:56:39.048Z,2.80
2017-09-10T22:59:06.711Z,4.73
2017-09-10T23:01:34.378Z,1.90
2017-09-10T23:04:02.121Z,3.70
2017-09-10T23:06:29.782Z,1.80
2017-09-10T23:08:57.412Z,1.87
2017-09-10T23:11:25.032Z,2.30
2017-09-10T23:13:52.696Z,1.33
2017-09-10T23:16:20.308Z,1.80
2017-09-10T23:18:48.006Z,2.17
2017-09-10T23:21:15.664Z,2.97
2017-09-10T23:23:43.295Z,1.87
2017-09-10T23:26:10.925Z,1.93
2017-09-10T23:28:39.356Z,2.50
2017-09-10T23:31:07.004Z,2.07
2017-09-10T23:33:34.653Z,1.60
2017-09-10T23:36:02.352Z,2.00
2017-09-10T23:38:30.025Z,1.77
2017-09-10T23:40:58.484Z,1.83
2017-09-10T23:43:26.132Z,1.60
2017-09-10T23:45:53.756Z,1.77
2017-09-10T23:48:22.151Z,2.53
2017-09-10T23:50:49.860Z,2.40
2017-09-10T23:53:17.531Z,1.80
2017-09-10T23:55:45.171Z,2.03
2017-09-10T23:58:12.837Z,3.17
